sensor_id;sensor_type;location;lat;lon;timestamp;noise_LAeq;noise_LA_min;noise_LA_max;noise_LA01;noise_LA95
58251;Laerm;51449;51.676;5.812;2024-01-30T00:00:39;50.31;48.07;59.71;;
58251;Laerm;51449;51.676;5.812;2024-01-30T00:03:01;50.34;47.92;56.05;;
58251;Laerm;51449;51.676;5.812;2024-01-30T00:05:23;50.36;47.85;56.95;;
58251;Laerm;51449;51.676;5.812;2024-01-30T00:07:44;50.61;47.98;58.62;;
58251;Laerm;51449;51.676;5.812;2024-01-30T00:10:07;50.25;47.79;56.91;;
58251;Laerm;51449;51.676;5.812;2024-01-30T00:12:29;50.09;47.90;54.30;;
58251;Laerm;51449;51.676;5.812;2024-01-30T00:14:50;50.55;48.25;57.41;;
58251;Laerm;51449;51.676;5.812;2024-01-30T00:17:15;50.52;48.17;58.81;;
58251;Laerm;51449;51.676;5.812;2024-01-30T00:19:37;50.59;48.07;61.02;;
58251;Laerm;51449;51.676;5.812;2024-01-30T00:21:59;50.39;47.99;62.99;;
58251;Laerm;51449;51.676;5.812;2024-01-30T00:24:21;50.39;48.00;61.79;;
58251;Laerm;51449;51.676;5.812;2024-01-30T00:26:43;50.52;47.96;62.78;;
58251;Laerm;51449;51.676;5.812;2024-01-30T00:29:05;50.58;48.06;62.51;;
58251;Laerm;51449;51.676;5.812;2024-01-30T00:31:26;50.50;48.23;62.26;;
58251;Laerm;51449;51.676;5.812;2024-01-30T00:33:48;50.49;47.94;62.57;;
58251;Laerm;51449;51.676;5.812;2024-01-30T00:36:11;50.45;48.06;58.70;;
58251;Laerm;51449;51.676;5.812;2024-01-30T00:38:33;50.24;47.91;60.33;;
58251;Laerm;51449;51.676;5.812;2024-01-30T00:40:54;50.44;48.05;61.84;;
58251;Laerm;51449;51.676;5.812;2024-01-30T00:43:16;50.59;48.17;59.90;;
58251;Laerm;51449;51.676;5.812;2024-01-30T00:45:38;50.61;48.05;61.49;;
58251;Laerm;51449;51.676;5.812;2024-01-30T00:48:00;50.56;47.92;61.99;;
58251;Laerm;51449;51.676;5.812;2024-01-30T00:50:22;49.82;47.77;60.34;;
58251;Laerm;51449;51.676;5.812;2024-01-30T00:52:44;49.50;47.83;58.22;;
58251;Laerm;51449;51.676;5.812;2024-01-30T00:55:07;50.07;47.88;58.09;;
58251;Laerm;51449;51.676;5.812;2024-01-30T00:57:29;50.55;48.27;57.55;;
58251;Laerm;51449;51.676;5.812;2024-01-30T00:59:50;50.50;47.85;58.90;;
58251;Laerm;51449;51.676;5.812;2024-01-30T01:02:12;50.32;47.89;57.35;;
58251;Laerm;51449;51.676;5.812;2024-01-30T01:04:35;50.57;47.57;56.81;;
58251;Laerm;51449;51.676;5.812;2024-01-30T01:06:57;50.17;47.81;57.40;;
58251;Laerm;51449;51.676;5.812;2024-01-30T01:09:19;50.42;47.84;58.38;;
58251;Laerm;51449;51.676;5.812;2024-01-30T01:11:41;50.43;47.46;59.29;;
58251;Laerm;51449;51.676;5.812;2024-01-30T01:14:03;50.24;47.57;55.96;;
58251;Laerm;51449;51.676;5.812;2024-01-30T01:16:24;50.39;47.71;56.26;;
58251;Laerm;51449;51.676;5.812;2024-01-30T01:18:46;49.94;47.27;54.86;;
58251;Laerm;51449;51.676;5.812;2024-01-30T01:21:08;50.12;47.77;57.57;;
58251;Laerm;51449;51.676;5.812;2024-01-30T01:23:30;49.90;47.56;55.18;;
58251;Laerm;51449;51.676;5.812;2024-01-30T01:25:52;49.89;47.39;58.42;;
58251;Laerm;51449;51.676;5.812;2024-01-30T01:28:13;49.88;47.64;56.75;;
58251;Laerm;51449;51.676;5.812;2024-01-30T01:30:36;49.78;47.75;54.36;;
58251;Laerm;51449;51.676;5.812;2024-01-30T01:32:58;49.87;47.52;55.66;;
58251;Laerm;51449;51.676;5.812;2024-01-30T01:35:23;49.93;47.69;54.15;;
58251;Laerm;51449;51.676;5.812;2024-01-30T01:37:49;49.97;47.50;54.52;;
58251;Laerm;51449;51.676;5.812;2024-01-30T01:40:16;49.91;47.55;52.21;;
58251;Laerm;51449;51.676;5.812;2024-01-30T01:42:38;49.97;47.52;54.04;;
58251;Laerm;51449;51.676;5.812;2024-01-30T01:45:00;50.12;47.37;56.48;;
58251;Laerm;51449;51.676;5.812;2024-01-30T01:47:21;50.16;47.26;55.95;;
58251;Laerm;51449;51.676;5.812;2024-01-30T01:49:44;49.89;47.36;57.59;;
58251;Laerm;51449;51.676;5.812;2024-01-30T01:52:06;49.66;47.36;57.79;;
58251;Laerm;51449;51.676;5.812;2024-01-30T01:54:31;49.90;47.41;57.41;;
58251;Laerm;51449;51.676;5.812;2024-01-30T01:56:54;50.18;47.39;58.36;;
58251;Laerm;51449;51.676;5.812;2024-01-30T01:59:17;49.95;47.57;55.65;;
58251;Laerm;51449;51.676;5.812;2024-01-30T02:01:40;50.00;47.83;56.49;;
58251;Laerm;51449;51.676;5.812;2024-01-30T02:04:04;49.58;47.79;56.93;;
58251;Laerm;51449;51.676;5.812;2024-01-30T02:06:27;49.09;47.67;51.38;;
58251;Laerm;51449;51.676;5.812;2024-01-30T02:08:49;50.28;47.66;57.81;;
58251;Laerm;51449;51.676;5.812;2024-01-30T02:11:11;51.00;48.39;57.81;;
58251;Laerm;51449;51.676;5.812;2024-01-30T02:13:33;50.98;48.31;55.76;;
58251;Laerm;51449;51.676;5.812;2024-01-30T02:15:54;50.86;48.19;57.97;;
58251;Laerm;51449;51.676;5.812;2024-01-30T02:18:17;50.85;48.39;60.35;;
58251;Laerm;51449;51.676;5.812;2024-01-30T02:20:39;50.91;48.38;61.78;;
58251;Laerm;51449;51.676;5.812;2024-01-30T02:23:02;50.95;48.24;59.79;;
58251;Laerm;51449;51.676;5.812;2024-01-30T02:25:38;50.90;48.24;60.43;;
58251;Laerm;51449;51.676;5.812;2024-01-30T02:28:00;50.94;48.42;64.62;;
58251;Laerm;51449;51.676;5.812;2024-01-30T02:30:22;50.92;48.48;62.37;;
58251;Laerm;51449;51.676;5.812;2024-01-30T02:32:44;50.22;48.09;60.85;;
58251;Laerm;51449;51.676;5.812;2024-01-30T02:35:06;50.65;47.80;60.66;;
58251;Laerm;51449;51.676;5.812;2024-01-30T02:37:28;50.17;47.78;59.91;;
58251;Laerm;51449;51.676;5.812;2024-01-30T02:39:50;50.54;47.95;62.93;;
58251;Laerm;51449;51.676;5.812;2024-01-30T02:42:12;50.75;47.93;61.91;;
58251;Laerm;51449;51.676;5.812;2024-01-30T02:44:33;50.69;48.04;59.54;;
58251;Laerm;51449;51.676;5.812;2024-01-30T02:46:55;50.73;48.08;63.14;;
58251;Laerm;51449;51.676;5.812;2024-01-30T02:49:17;50.64;47.62;58.07;;
58251;Laerm;51449;51.676;5.812;2024-01-30T02:51:39;50.75;48.01;52.90;;
58251;Laerm;51449;51.676;5.812;2024-01-30T02:54:01;50.51;48.02;59.66;;
58251;Laerm;51449;51.676;5.812;2024-01-30T02:56:23;51.40;48.59;60.84;;
58251;Laerm;51449;51.676;5.812;2024-01-30T02:58:44;51.34;48.70;57.28;;
58251;Laerm;51449;51.676;5.812;2024-01-30T03:01:07;51.41;48.86;60.74;;
58251;Laerm;51449;51.676;5.812;2024-01-30T03:03:29;51.39;48.34;61.44;;
58251;Laerm;51449;51.676;5.812;2024-01-30T03:05:50;50.31;47.85;59.13;;
58251;Laerm;51449;51.676;5.812;2024-01-30T03:08:12;49.71;47.81;61.26;;
58251;Laerm;51449;51.676;5.812;2024-01-30T03:10:34;49.74;47.92;58.76;;
58251;Laerm;51449;51.676;5.812;2024-01-30T03:12:57;49.75;47.95;59.70;;
58251;Laerm;51449;51.676;5.812;2024-01-30T03:15:18;49.11;47.65;61.87;;
58251;Laerm;51449;51.676;5.812;2024-01-30T03:17:41;49.25;47.61;59.78;;
58251;Laerm;51449;51.676;5.812;2024-01-30T03:20:04;49.36;47.78;59.88;;
58251;Laerm;51449;51.676;5.812;2024-01-30T03:22:27;49.70;48.02;62.32;;
58251;Laerm;51449;51.676;5.812;2024-01-30T03:24:49;49.74;47.96;61.65;;
58251;Laerm;51449;51.676;5.812;2024-01-30T03:27:11;49.73;47.99;62.98;;
58251;Laerm;51449;51.676;5.812;2024-01-30T03:29:33;49.82;48.12;61.72;;
58251;Laerm;51449;51.676;5.812;2024-01-30T03:31:55;49.93;47.92;63.73;;
58251;Laerm;51449;51.676;5.812;2024-01-30T03:34:17;49.91;48.07;64.03;;
58251;Laerm;51449;51.676;5.812;2024-01-30T03:36:39;49.86;48.00;64.42;;
58251;Laerm;51449;51.676;5.812;2024-01-30T03:39:01;49.89;47.93;62.28;;
58251;Laerm;51449;51.676;5.812;2024-01-30T03:41:23;49.56;47.99;63.56;;
58251;Laerm;51449;51.676;5.812;2024-01-30T03:43:46;49.63;47.91;64.28;;
58251;Laerm;51449;51.676;5.812;2024-01-30T03:46:08;49.50;47.89;62.82;;
58251;Laerm;51449;51.676;5.812;2024-01-30T03:48:30;49.42;47.83;62.57;;
58251;Laerm;51449;51.676;5.812;2024-01-30T03:50:52;49.48;47.91;63.75;;
58251;Laerm;51449;51.676;5.812;2024-01-30T03:53:14;49.61;47.78;62.90;;
58251;Laerm;51449;51.676;5.812;2024-01-30T03:55:36;49.94;47.91;65.00;;
58251;Laerm;51449;51.676;5.812;2024-01-30T03:57:57;49.91;47.79;64.08;;
58251;Laerm;51449;51.676;5.812;2024-01-30T04:00:19;50.23;47.71;63.81;;
58251;Laerm;51449;51.676;5.812;2024-01-30T04:02:41;50.79;47.68;64.72;;
58251;Laerm;51449;51.676;5.812;2024-01-30T04:05:03;50.06;47.83;64.23;;
58251;Laerm;51449;51.676;5.812;2024-01-30T04:07:25;50.52;47.74;63.79;;
58251;Laerm;51449;51.676;5.812;2024-01-30T04:09:47;50.95;47.71;63.79;;
58251;Laerm;51449;51.676;5.812;2024-01-30T04:12:09;50.99;47.87;64.06;;
58251;Laerm;51449;51.676;5.812;2024-01-30T04:14:30;51.89;47.89;65.02;;
58251;Laerm;51449;51.676;5.812;2024-01-30T04:16:52;51.76;47.58;64.21;;
58251;Laerm;51449;51.676;5.812;2024-01-30T04:19:14;50.94;47.73;64.28;;
58251;Laerm;51449;51.676;5.812;2024-01-30T04:21:36;50.00;47.79;64.55;;
58251;Laerm;51449;51.676;5.812;2024-01-30T04:23:58;50.84;47.71;64.55;;
58251;Laerm;51449;51.676;5.812;2024-01-30T04:26:20;50.32;47.79;64.49;;
58251;Laerm;51449;51.676;5.812;2024-01-30T04:28:43;49.70;47.91;63.06;;
58251;Laerm;51449;51.676;5.812;2024-01-30T04:31:05;49.46;47.96;63.03;;
58251;Laerm;51449;51.676;5.812;2024-01-30T04:33:27;49.82;47.93;62.42;;
58251;Laerm;51449;51.676;5.812;2024-01-30T04:35:49;51.05;48.13;63.84;;
58251;Laerm;51449;51.676;5.812;2024-01-30T04:38:11;49.54;47.93;57.65;;
58251;Laerm;51449;51.676;5.812;2024-01-30T04:40:33;49.39;47.87;57.44;;
58251;Laerm;51449;51.676;5.812;2024-01-30T04:42:55;49.59;48.21;57.15;;
58251;Laerm;51449;51.676;5.812;2024-01-30T04:45:17;50.75;48.45;59.70;;
58251;Laerm;51449;51.676;5.812;2024-01-30T04:47:38;50.98;48.89;59.67;;
58251;Laerm;51449;51.676;5.812;2024-01-30T04:50:01;50.18;48.17;56.09;;
58251;Laerm;51449;51.676;5.812;2024-01-30T04:52:24;50.05;47.86;57.93;;
58251;Laerm;51449;51.676;5.812;2024-01-30T04:54:46;49.98;48.15;57.21;;
58251;Laerm;51449;51.676;5.812;2024-01-30T04:57:08;49.61;47.88;57.15;;
58251;Laerm;51449;51.676;5.812;2024-01-30T04:59:31;49.87;48.20;57.51;;
58251;Laerm;51449;51.676;5.812;2024-01-30T05:01:52;50.10;48.29;57.80;;
58251;Laerm;51449;51.676;5.812;2024-01-30T05:04:15;49.99;48.45;56.49;;
58251;Laerm;51449;51.676;5.812;2024-01-30T05:06:38;49.96;48.31;57.38;;
58251;Laerm;51449;51.676;5.812;2024-01-30T05:09:00;50.04;48.49;57.30;;
58251;Laerm;51449;51.676;5.812;2024-01-30T05:11:21;49.91;48.28;56.83;;
58251;Laerm;51449;51.676;5.812;2024-01-30T05:13:43;49.93;48.30;57.74;;
58251;Laerm;51449;51.676;5.812;2024-01-30T05:16:05;49.95;48.57;57.18;;
58251;Laerm;51449;51.676;5.812;2024-01-30T05:18:27;49.98;48.35;56.49;;
58251;Laerm;51449;51.676;5.812;2024-01-30T05:20:52;50.65;48.13;57.82;;
58251;Laerm;51449;51.676;5.812;2024-01-30T05:23:13;50.73;48.01;57.62;;
58251;Laerm;51449;51.676;5.812;2024-01-30T05:25:35;51.12;47.94;57.91;;
58251;Laerm;51449;51.676;5.812;2024-01-30T05:27:57;52.11;49.18;58.94;;
58251;Laerm;51449;51.676;5.812;2024-01-30T05:30:19;52.02;49.29;58.44;;
58251;Laerm;51449;51.676;5.812;2024-01-30T05:32:41;52.27;49.76;58.92;;
58251;Laerm;51449;51.676;5.812;2024-01-30T05:35:03;52.43;49.91;60.48;;
58251;Laerm;51449;51.676;5.812;2024-01-30T05:37:25;52.46;49.89;59.17;;
58251;Laerm;51449;51.676;5.812;2024-01-30T05:39:47;52.63;49.56;62.95;;
58251;Laerm;51449;51.676;5.812;2024-01-30T05:42:09;52.89;49.89;59.83;;
58251;Laerm;51449;51.676;5.812;2024-01-30T05:44:31;52.98;50.24;61.24;;
58251;Laerm;51449;51.676;5.812;2024-01-30T05:46:53;53.10;50.27;59.47;;
58251;Laerm;51449;51.676;5.812;2024-01-30T05:49:15;52.75;49.96;62.02;;
58251;Laerm;51449;51.676;5.812;2024-01-30T05:51:37;52.60;50.28;62.98;;
58251;Laerm;51449;51.676;5.812;2024-01-30T05:53:58;52.70;49.36;62.60;;
58251;Laerm;51449;51.676;5.812;2024-01-30T05:56:20;52.47;50.02;62.18;;
58251;Laerm;51449;51.676;5.812;2024-01-30T05:58:42;52.51;49.74;62.91;;
58251;Laerm;51449;51.676;5.812;2024-01-30T06:01:07;51.89;48.72;62.44;;
58251;Laerm;51449;51.676;5.812;2024-01-30T06:03:30;51.10;48.29;62.25;;
58251;Laerm;51449;51.676;5.812;2024-01-30T06:05:52;53.66;48.28;62.42;;
58251;Laerm;51449;51.676;5.812;2024-01-30T06:08:14;52.52;48.40;64.10;;
58251;Laerm;51449;51.676;5.812;2024-01-30T06:10:35;54.08;48.87;64.78;;
58251;Laerm;51449;51.676;5.812;2024-01-30T06:12:57;53.49;48.23;64.56;;
58251;Laerm;51449;51.676;5.812;2024-01-30T06:15:19;52.45;48.27;65.68;;
58251;Laerm;51449;51.676;5.812;2024-01-30T06:17:41;57.07;48.17;67.79;;
58251;Laerm;51449;51.676;5.812;2024-01-30T06:20:03;56.75;48.26;68.32;;
58251;Laerm;51449;51.676;5.812;2024-01-30T06:22:25;61.54;48.06;74.15;;
58251;Laerm;51449;51.676;5.812;2024-01-30T06:24:47;52.77;48.17;63.94;;
58251;Laerm;51449;51.676;5.812;2024-01-30T06:27:14;52.74;48.43;65.30;;
58251;Laerm;51449;51.676;5.812;2024-01-30T06:29:36;62.64;48.76;73.55;;
58251;Laerm;51449;51.676;5.812;2024-01-30T06:31:59;62.41;48.89;72.26;;
58251;Laerm;51449;51.676;5.812;2024-01-30T06:34:21;62.83;48.74;72.07;;
58251;Laerm;51449;51.676;5.812;2024-01-30T06:36:43;61.40;49.19;73.86;;
58251;Laerm;51449;51.676;5.812;2024-01-30T06:39:05;54.76;49.03;65.97;;
58251;Laerm;51449;51.676;5.812;2024-01-30T06:41:27;63.16;49.72;72.54;;
58251;Laerm;51449;51.676;5.812;2024-01-30T06:43:49;54.24;49.94;65.11;;
58251;Laerm;51449;51.676;5.812;2024-01-30T06:46:11;60.19;49.90;71.77;;
58251;Laerm;51449;51.676;5.812;2024-01-30T06:48:34;54.05;49.92;66.08;;
58251;Laerm;51449;51.676;5.812;2024-01-30T06:50:57;54.40;49.67;65.95;;
58251;Laerm;51449;51.676;5.812;2024-01-30T06:53:19;55.35;52.07;65.44;;
58251;Laerm;51449;51.676;5.812;2024-01-30T06:55:41;60.55;50.95;71.91;;
58251;Laerm;51449;51.676;5.812;2024-01-30T06:58:03;54.41;50.57;67.09;;
58251;Laerm;51449;51.676;5.812;2024-01-30T07:00:25;54.94;50.78;65.50;;
58251;Laerm;51449;51.676;5.812;2024-01-30T07:02:46;66.41;51.40;72.40;;
58251;Laerm;51449;51.676;5.812;2024-01-30T07:05:09;63.54;50.89;72.14;;
58251;Laerm;51449;51.676;5.812;2024-01-30T07:07:31;54.67;51.38;63.51;;
58251;Laerm;51449;51.676;5.812;2024-01-30T07:09:53;63.63;49.47;72.74;;
58251;Laerm;51449;51.676;5.812;2024-01-30T07:12:18;64.03;48.59;72.67;;
58251;Laerm;51449;51.676;5.812;2024-01-30T07:14:40;56.14;48.19;72.29;;
58251;Laerm;51449;51.676;5.812;2024-01-30T07:17:02;55.33;48.41;70.26;;
58251;Laerm;51449;51.676;5.812;2024-01-30T07:19:24;54.36;48.62;68.98;;
58251;Laerm;51449;51.676;5.812;2024-01-30T07:21:46;60.03;48.63;72.89;;
58251;Laerm;51449;51.676;5.812;2024-01-30T07:24:08;55.10;48.41;69.55;;
58251;Laerm;51449;51.676;5.812;2024-01-30T07:26:29;56.68;48.30;69.28;;
58251;Laerm;51449;51.676;5.812;2024-01-30T07:28:51;54.60;48.43;69.69;;
58251;Laerm;51449;51.676;5.812;2024-01-30T07:31:13;57.52;48.92;69.12;;
58251;Laerm;51449;51.676;5.812;2024-01-30T07:33:35;55.24;48.26;68.60;;
58251;Laerm;51449;51.676;5.812;2024-01-30T07:35:57;56.45;48.10;68.16;;
58251;Laerm;51449;51.676;5.812;2024-01-30T07:38:19;63.34;48.95;69.59;;
58251;Laerm;51449;51.676;5.812;2024-01-30T07:40:41;60.06;48.89;69.24;;
58251;Laerm;51449;51.676;5.812;2024-01-30T07:43:03;59.76;50.21;68.88;;
58251;Laerm;51449;51.676;5.812;2024-01-30T07:45:25;57.81;50.85;69.71;;
58251;Laerm;51449;51.676;5.812;2024-01-30T07:47:50;58.02;50.94;69.14;;
58251;Laerm;51449;51.676;5.812;2024-01-30T07:50:12;58.71;51.22;69.02;;
58251;Laerm;51449;51.676;5.812;2024-01-30T07:52:34;57.41;48.21;68.91;;
58251;Laerm;51449;51.676;5.812;2024-01-30T07:54:56;54.56;48.11;65.08;;
58251;Laerm;51449;51.676;5.812;2024-01-30T07:57:18;52.13;47.99;65.49;;
58251;Laerm;51449;51.676;5.812;2024-01-30T07:59:43;51.29;47.95;65.08;;
58251;Laerm;51449;51.676;5.812;2024-01-30T08:02:06;51.34;47.95;65.05;;
58251;Laerm;51449;51.676;5.812;2024-01-30T08:04:27;52.57;47.90;66.53;;
58251;Laerm;51449;51.676;5.812;2024-01-30T08:06:50;51.72;47.68;66.40;;
58251;Laerm;51449;51.676;5.812;2024-01-30T08:09:12;49.41;47.56;60.46;;
58251;Laerm;51449;51.676;5.812;2024-01-30T08:11:33;49.50;47.55;60.02;;
58251;Laerm;51449;51.676;5.812;2024-01-30T08:13:55;49.21;47.55;60.02;;
58251;Laerm;51449;51.676;5.812;2024-01-30T08:16:17;49.50;47.27;60.31;;
58251;Laerm;51449;51.676;5.812;2024-01-30T08:18:39;49.64;47.59;61.04;;
58251;Laerm;51449;51.676;5.812;2024-01-30T08:21:01;49.51;47.62;60.97;;
58251;Laerm;51449;51.676;5.812;2024-01-30T08:23:23;49.98;47.82;67.70;;
58251;Laerm;51449;51.676;5.812;2024-01-30T08:25:45;50.06;47.60;60.99;;
58251;Laerm;51449;51.676;5.812;2024-01-30T08:28:07;49.73;47.69;60.56;;
58251;Laerm;51449;51.676;5.812;2024-01-30T08:30:29;49.20;47.66;51.69;;
58251;Laerm;51449;51.676;5.812;2024-01-30T08:32:51;49.36;47.75;56.18;;
58251;Laerm;51449;51.676;5.812;2024-01-30T08:35:14;49.49;47.78;60.65;;
58251;Laerm;51449;51.676;5.812;2024-01-30T08:37:37;50.27;47.88;63.75;;
58251;Laerm;51449;51.676;5.812;2024-01-30T08:39:59;50.29;47.59;62.39;;
58251;Laerm;51449;51.676;5.812;2024-01-30T08:42:21;50.66;47.77;65.13;;
58251;Laerm;51449;51.676;5.812;2024-01-30T08:44:44;50.27;47.78;61.77;;
58251;Laerm;51449;51.676;5.812;2024-01-30T08:47:06;50.36;47.71;64.79;;
58251;Laerm;51449;51.676;5.812;2024-01-30T08:49:28;50.24;47.78;62.08;;
58251;Laerm;51449;51.676;5.812;2024-01-30T08:51:50;50.22;47.84;61.49;;
58251;Laerm;51449;51.676;5.812;2024-01-30T08:54:12;50.50;47.69;62.00;;
58251;Laerm;51449;51.676;5.812;2024-01-30T08:56:34;50.38;47.57;64.38;;
58251;Laerm;51449;51.676;5.812;2024-01-30T08:58:57;50.51;47.80;61.21;;
58251;Laerm;51449;51.676;5.812;2024-01-30T09:01:18;51.04;48.24;60.72;;
58251;Laerm;51449;51.676;5.812;2024-01-30T09:03:40;49.91;47.53;57.71;;
58251;Laerm;51449;51.676;5.812;2024-01-30T09:06:11;50.06;48.14;57.41;;
58251;Laerm;51449;51.676;5.812;2024-01-30T09:08:33;50.23;48.18;56.32;;
58251;Laerm;51449;51.676;5.812;2024-01-30T09:10:55;51.58;47.92;61.66;;
58251;Laerm;51449;51.676;5.812;2024-01-30T09:13:17;50.38;47.81;61.13;;
58251;Laerm;51449;51.676;5.812;2024-01-30T09:15:40;50.45;47.84;58.50;;
58251;Laerm;51449;51.676;5.812;2024-01-30T09:18:03;50.47;48.19;60.43;;
58251;Laerm;51449;51.676;5.812;2024-01-30T09:20:25;50.53;48.09;58.15;;
58251;Laerm;51449;51.676;5.812;2024-01-30T09:22:46;50.49;48.29;57.84;;
58251;Laerm;51449;51.676;5.812;2024-01-30T09:25:08;50.48;48.18;59.01;;
58251;Laerm;51449;51.676;5.812;2024-01-30T09:27:31;50.93;47.86;59.37;;
58251;Laerm;51449;51.676;5.812;2024-01-30T09:29:53;51.24;48.68;58.84;;
58251;Laerm;51449;51.676;5.812;2024-01-30T09:32:16;51.63;48.18;59.09;;
58251;Laerm;51449;51.676;5.812;2024-01-30T09:34:39;50.93;48.06;58.24;;
58251;Laerm;51449;51.676;5.812;2024-01-30T09:37:02;50.92;48.25;59.22;;
58251;Laerm;51449;51.676;5.812;2024-01-30T09:39:24;51.19;48.32;56.58;;
58251;Laerm;51449;51.676;5.812;2024-01-30T09:42:05;51.16;48.48;54.75;;
58251;Laerm;51449;51.676;5.812;2024-01-30T09:44:29;50.85;48.23;53.87;;
58251;Laerm;51449;51.676;5.812;2024-01-30T09:46:52;50.84;48.27;53.84;;
58251;Laerm;51449;51.676;5.812;2024-01-30T09:49:14;50.91;48.24;54.54;;
58251;Laerm;51449;51.676;5.812;2024-01-30T09:51:39;50.87;48.31;54.12;;
58251;Laerm;51449;51.676;5.812;2024-01-30T09:54:02;50.48;48.23;55.28;;
58251;Laerm;51449;51.676;5.812;2024-01-30T09:56:25;50.33;48.38;53.81;;
58251;Laerm;51449;51.676;5.812;2024-01-30T09:58:47;50.39;48.39;54.32;;
58251;Laerm;51449;51.676;5.812;2024-01-30T10:01:10;50.66;48.13;54.37;;
58251;Laerm;51449;51.676;5.812;2024-01-30T10:03:32;50.46;48.16;54.04;;
58251;Laerm;51449;51.676;5.812;2024-01-30T10:05:55;50.41;48.22;54.42;;
58251;Laerm;51449;51.676;5.812;2024-01-30T10:08:18;50.28;48.17;53.79;;
58251;Laerm;51449;51.676;5.812;2024-01-30T10:10:46;50.48;48.28;54.71;;
58251;Laerm;51449;51.676;5.812;2024-01-30T10:13:09;50.54;47.92;53.75;;
58251;Laerm;51449;51.676;5.812;2024-01-30T10:15:32;50.32;48.02;54.52;;
58251;Laerm;51449;51.676;5.812;2024-01-30T10:17:57;50.26;48.18;54.84;;
58251;Laerm;51449;51.676;5.812;2024-01-30T10:20:19;50.33;48.15;53.65;;
58251;Laerm;51449;51.676;5.812;2024-01-30T10:22:41;50.19;48.05;53.86;;
58251;Laerm;51449;51.676;5.812;2024-01-30T10:25:07;50.31;48.32;54.65;;
58251;Laerm;51449;51.676;5.812;2024-01-30T10:27:29;50.13;48.26;55.31;;
58251;Laerm;51449;51.676;5.812;2024-01-30T10:29:52;50.24;48.16;54.91;;
58251;Laerm;51449;51.676;5.812;2024-01-30T10:32:15;50.15;48.12;54.33;;
58251;Laerm;51449;51.676;5.812;2024-01-30T10:34:37;50.26;47.67;54.11;;
58251;Laerm;51449;51.676;5.812;2024-01-30T10:37:10;50.40;48.24;54.48;;
58251;Laerm;51449;51.676;5.812;2024-01-30T10:39:39;50.16;48.21;55.19;;
58251;Laerm;51449;51.676;5.812;2024-01-30T10:42:05;49.54;48.23;51.36;;
58251;Laerm;51449;51.676;5.812;2024-01-30T10:44:37;49.60;48.15;51.57;;
58251;Laerm;51449;51.676;5.812;2024-01-30T10:47:06;49.60;48.12;51.61;;
58251;Laerm;51449;51.676;5.812;2024-01-30T10:49:30;49.67;48.00;51.60;;
58251;Laerm;51449;51.676;5.812;2024-01-30T10:51:55;49.69;48.27;52.07;;
58251;Laerm;51449;51.676;5.812;2024-01-30T10:54:17;49.63;48.09;52.11;;
58251;Laerm;51449;51.676;5.812;2024-01-30T10:56:42;49.72;48.32;51.91;;
58251;Laerm;51449;51.676;5.812;2024-01-30T10:59:04;49.75;48.12;51.88;;
58251;Laerm;51449;51.676;5.812;2024-01-30T11:01:30;49.71;48.21;51.85;;
58251;Laerm;51449;51.676;5.812;2024-01-30T11:03:53;49.71;48.19;51.90;;
58251;Laerm;51449;51.676;5.812;2024-01-30T11:06:15;49.90;48.21;51.74;;
58251;Laerm;51449;51.676;5.812;2024-01-30T11:08:40;50.40;48.68;54.14;;
58251;Laerm;51449;51.676;5.812;2024-01-30T11:11:09;50.36;48.82;52.57;;
58251;Laerm;51449;51.676;5.812;2024-01-30T11:13:31;50.28;48.59;52.56;;
58251;Laerm;51449;51.676;5.812;2024-01-30T11:15:54;50.29;48.54;52.24;;
58251;Laerm;51449;51.676;5.812;2024-01-30T11:18:26;50.27;48.66;52.59;;
58251;Laerm;51449;51.676;5.812;2024-01-30T11:20:50;50.29;48.72;52.47;;
58251;Laerm;51449;51.676;5.812;2024-01-30T11:23:12;50.23;48.67;53.89;;
58251;Laerm;51449;51.676;5.812;2024-01-30T11:25:34;50.24;48.56;54.64;;
58251;Laerm;51449;51.676;5.812;2024-01-30T11:27:56;50.45;48.62;52.68;;
58251;Laerm;51449;51.676;5.812;2024-01-30T11:30:29;50.45;48.71;52.75;;
58251;Laerm;51449;51.676;5.812;2024-01-30T11:33:01;52.39;48.64;69.82;;
58251;Laerm;51449;51.676;5.812;2024-01-30T11:35:25;50.34;48.70;65.58;;
58251;Laerm;51449;51.676;5.812;2024-01-30T11:37:49;52.74;48.64;69.01;;
58251;Laerm;51449;51.676;5.812;2024-01-30T11:40:11;50.72;48.64;59.21;;
58251;Laerm;51449;51.676;5.812;2024-01-30T11:42:34;50.45;48.89;55.12;;
58251;Laerm;51449;51.676;5.812;2024-01-30T11:45:00;50.63;48.67;58.39;;
58251;Laerm;51449;51.676;5.812;2024-01-30T11:47:24;50.76;48.92;59.02;;
58251;Laerm;51449;51.676;5.812;2024-01-30T11:49:46;50.74;48.87;59.27;;
58251;Laerm;51449;51.676;5.812;2024-01-30T11:52:08;50.71;48.90;57.92;;
58251;Laerm;51449;51.676;5.812;2024-01-30T11:54:29;50.59;48.69;58.06;;
58251;Laerm;51449;51.676;5.812;2024-01-30T11:56:52;50.35;48.73;57.33;;
58251;Laerm;51449;51.676;5.812;2024-01-30T11:59:14;50.20;48.09;57.43;;
58251;Laerm;51449;51.676;5.812;2024-01-30T12:01:36;49.31;47.93;52.40;;
58251;Laerm;51449;51.676;5.812;2024-01-30T12:03:59;49.46;47.79;52.80;;
58251;Laerm;51449;51.676;5.812;2024-01-30T12:06:21;49.40;47.95;51.81;;
58251;Laerm;51449;51.676;5.812;2024-01-30T12:09:00;49.41;47.99;53.30;;
58251;Laerm;51449;51.676;5.812;2024-01-30T12:11:22;49.40;47.83;51.83;;
58251;Laerm;51449;51.676;5.812;2024-01-30T12:13:44;49.37;47.74;52.22;;
58251;Laerm;51449;51.676;5.812;2024-01-30T12:16:07;49.37;47.94;53.12;;
58251;Laerm;51449;51.676;5.812;2024-01-30T12:18:29;49.36;47.70;52.62;;
58251;Laerm;51449;51.676;5.812;2024-01-30T12:20:59;49.65;48.07;52.85;;
58251;Laerm;51449;51.676;5.812;2024-01-30T12:23:24;49.39;47.91;53.94;;
58251;Laerm;51449;51.676;5.812;2024-01-30T12:25:47;49.49;48.01;52.67;;
58251;Laerm;51449;51.676;5.812;2024-01-30T12:28:10;49.54;48.08;52.34;;
58251;Laerm;51449;51.676;5.812;2024-01-30T12:30:34;49.41;47.93;52.37;;
58251;Laerm;51449;51.676;5.812;2024-01-30T12:32:56;49.42;48.04;51.74;;
58251;Laerm;51449;51.676;5.812;2024-01-30T12:35:20;49.53;47.85;52.26;;
58251;Laerm;51449;51.676;5.812;2024-01-30T12:37:45;49.90;47.97;52.01;;
58251;Laerm;51449;51.676;5.812;2024-01-30T12:40:09;50.14;48.59;52.20;;
58251;Laerm;51449;51.676;5.812;2024-01-30T12:42:31;50.11;48.62;52.45;;
58251;Laerm;51449;51.676;5.812;2024-01-30T12:44:53;49.92;48.41;52.56;;
58251;Laerm;51449;51.676;5.812;2024-01-30T12:47:15;49.94;47.73;53.20;;
58251;Laerm;51449;51.676;5.812;2024-01-30T12:49:37;49.78;48.22;52.37;;
58251;Laerm;51449;51.676;5.812;2024-01-30T12:52:00;49.97;48.32;53.05;;
58251;Laerm;51449;51.676;5.812;2024-01-30T12:54:23;49.86;48.45;52.12;;
58251;Laerm;51449;51.676;5.812;2024-01-30T12:56:45;49.91;48.16;52.69;;
58251;Laerm;51449;51.676;5.812;2024-01-30T12:59:06;49.78;48.27;52.58;;
58251;Laerm;51449;51.676;5.812;2024-01-30T13:01:28;49.89;48.34;52.43;;
58251;Laerm;51449;51.676;5.812;2024-01-30T13:03:50;49.94;48.38;52.63;;
58251;Laerm;51449;51.676;5.812;2024-01-30T13:06:12;49.96;48.32;53.61;;
58251;Laerm;51449;51.676;5.812;2024-01-30T13:08:34;50.17;48.36;52.50;;
58251;Laerm;51449;51.676;5.812;2024-01-30T13:10:56;50.15;48.54;52.76;;
58251;Laerm;51449;51.676;5.812;2024-01-30T13:13:18;50.01;48.02;53.27;;
58251;Laerm;51449;51.676;5.812;2024-01-30T13:15:41;49.90;48.53;52.92;;
58251;Laerm;51449;51.676;5.812;2024-01-30T13:18:04;50.07;48.39;54.16;;